San Andreas, California
Current Conditions -  °F | °C
As of 3:35 PM on Thursday 18 Dec 2014 (Local Time) from KO22 Reporting Station
Clear Clear  
Wind Chill: 12°   Ceiling: Unl
Heat Index: 12°   Visibility: 10mi
Dew Point: 10°   Wind: 5mph
Humidity: 88%   Direction: 220°SW
Pressure: 30.14"   Gusts: NA
Location:  38.2°N, 120.68°W
Report Text: KO22 182335Z AUTO 22004KT 10SM CLR 12/10 A3014 RMK AO1
Loading
Personal Weather Stations






























Interactive Weather Map New forecast layout! Learn more

10-Day Weather Forecast

Advertisements
Track Severe Weather on mobile